Clear Sky Current Weather (METAR) For Antalya Airport

All times on the weather descriptions are local

Observed at 03:50 - (21 mins ago)

Clear Sky

24°C

Clear Sky
Clouds:
Wind: 340° at 05 knots
Visibility: Greater than 10km
QNH: 1006
Dew Point: 21°C
Runway in Use: Runways 36L/C/R

Sunrise Today: 05:53
Sunset Today: 20:12

Forecast Weather (TAF) For Antalya Airport

Issued at 03:00 - (7 days 22 hrs ago)


Runway in Use: Unable to determine, wind is clam

Forecast valid until 03:00 on Thursday

METAR/TAF RAW METAR / TAF

LTAI 230050Z 34005KT CAVOK 24/21 Q1006 NOSIG RMK RWY18C 33003KT RWY36R 33005KT RWY18L 33003KT

Weather Widget

Put weather from any of our airports on your website with our weather widget.

Find Another Search

Airport Search


Please Wait Please Wait - Loading
Close
Close

Login

Username:

Password:

Remember Me:

Remember me on this computer

Forgotten your password? Get a reset password sent to your registered e-mail address

Close

User Private Message

Subject:

Message: